sensor_id;sensor_type;location;lat;lon;timestamp;P1;durP1;ratioP1;P2;durP2;ratioP2
31660;SDS011;18267;52.234;7.444;2023-06-19T00:02:01;7.45;;;5.63;;
31660;SDS011;18267;52.234;7.444;2023-06-19T00:04:27;7.32;;;5.35;;
31660;SDS011;18267;52.234;7.444;2023-06-19T00:06:53;6.80;;;5.57;;
31660;SDS011;18267;52.234;7.444;2023-06-19T00:09:19;10.43;;;5.75;;
31660;SDS011;18267;52.234;7.444;2023-06-19T00:11:44;6.40;;;5.70;;
31660;SDS011;18267;52.234;7.444;2023-06-19T00:14:10;9.73;;;5.63;;
31660;SDS011;18267;52.234;7.444;2023-06-19T00:16:36;8.98;;;5.45;;
31660;SDS011;18267;52.234;7.444;2023-06-19T00:19:04;11.30;;;5.20;;
31660;SDS011;18267;52.234;7.444;2023-06-19T00:21:31;8.15;;;5.78;;
31660;SDS011;18267;52.234;7.444;2023-06-19T00:24:00;5.82;;;4.97;;
31660;SDS011;18267;52.234;7.444;2023-06-19T00:26:26;8.27;;;5.60;;
31660;SDS011;18267;52.234;7.444;2023-06-19T00:28:51;9.52;;;5.28;;
31660;SDS011;18267;52.234;7.444;2023-06-19T00:31:17;6.70;;;6.00;;
31660;SDS011;18267;52.234;7.444;2023-06-19T00:33:44;6.70;;;5.65;;
31660;SDS011;18267;52.234;7.444;2023-06-19T00:36:12;8.25;;;5.38;;
31660;SDS011;18267;52.234;7.444;2023-06-19T00:38:39;6.57;;;5.97;;
31660;SDS011;18267;52.234;7.444;2023-06-19T00:41:05;6.13;;;5.15;;
31660;SDS011;18267;52.234;7.444;2023-06-19T00:43:31;6.72;;;5.57;;
31660;SDS011;18267;52.234;7.444;2023-06-19T00:45:57;8.05;;;5.45;;
31660;SDS011;18267;52.234;7.444;2023-06-19T00:48:23;10.48;;;6.03;;
31660;SDS011;18267;52.234;7.444;2023-06-19T00:50:50;6.00;;;5.40;;
31660;SDS011;18267;52.234;7.444;2023-06-19T00:53:16;6.13;;;5.47;;
31660;SDS011;18267;52.234;7.444;2023-06-19T00:55:44;6.90;;;6.07;;
31660;SDS011;18267;52.234;7.444;2023-06-19T00:58:11;6.50;;;5.10;;
31660;SDS011;18267;52.234;7.444;2023-06-19T01:00:36;6.55;;;5.07;;
31660;SDS011;18267;52.234;7.444;2023-06-19T01:03:02;6.15;;;5.55;;
31660;SDS011;18267;52.234;7.444;2023-06-19T01:05:29;6.28;;;5.28;;
31660;SDS011;18267;52.234;7.444;2023-06-19T01:08:12;9.50;;;5.80;;
31660;SDS011;18267;52.234;7.444;2023-06-19T01:10:56;7.88;;;5.72;;
31660;SDS011;18267;52.234;7.444;2023-06-19T01:13:30;6.68;;;5.80;;
31660;SDS011;18267;52.234;7.444;2023-06-19T01:16:04;6.07;;;5.47;;
31660;SDS011;18267;52.234;7.444;2023-06-19T01:18:32;6.30;;;5.38;;
31660;SDS011;18267;52.234;7.444;2023-06-19T01:23:40;8.95;;;6.47;;
31660;SDS011;18267;52.234;7.444;2023-06-19T01:26:06;7.03;;;5.90;;
31660;SDS011;18267;52.234;7.444;2023-06-19T01:28:32;6.28;;;5.68;;
31660;SDS011;18267;52.234;7.444;2023-06-19T01:31:00;7.68;;;5.88;;
31660;SDS011;18267;52.234;7.444;2023-06-19T01:33:27;8.95;;;5.45;;
31660;SDS011;18267;52.234;7.444;2023-06-19T01:35:56;8.70;;;5.80;;
31660;SDS011;18267;52.234;7.444;2023-06-19T01:38:23;8.52;;;6.07;;
31660;SDS011;18267;52.234;7.444;2023-06-19T01:40:54;7.50;;;5.47;;
31660;SDS011;18267;52.234;7.444;2023-06-19T01:43:21;6.95;;;5.70;;
31660;SDS011;18267;52.234;7.444;2023-06-19T01:45:48;9.52;;;5.63;;
31660;SDS011;18267;52.234;7.444;2023-06-19T01:48:14;6.13;;;5.53;;
31660;SDS011;18267;52.234;7.444;2023-06-19T01:50:41;5.95;;;5.35;;
31660;SDS011;18267;52.234;7.444;2023-06-19T01:53:11;6.68;;;5.47;;
31660;SDS011;18267;52.234;7.444;2023-06-19T01:55:36;10.15;;;5.93;;
31660;SDS011;18267;52.234;7.444;2023-06-19T01:58:02;7.95;;;6.03;;
31660;SDS011;18267;52.234;7.444;2023-06-19T02:00:28;8.05;;;6.28;;
31660;SDS011;18267;52.234;7.444;2023-06-19T02:02:53;10.68;;;6.35;;
31660;SDS011;18267;52.234;7.444;2023-06-19T02:05:19;7.30;;;5.47;;
31660;SDS011;18267;52.234;7.444;2023-06-19T02:07:44;6.78;;;5.85;;
31660;SDS011;18267;52.234;7.444;2023-06-19T02:10:10;7.72;;;5.95;;
31660;SDS011;18267;52.234;7.444;2023-06-19T02:12:36;7.80;;;6.30;;
31660;SDS011;18267;52.234;7.444;2023-06-19T02:15:01;7.38;;;6.00;;
31660;SDS011;18267;52.234;7.444;2023-06-19T02:17:27;7.90;;;6.18;;
31660;SDS011;18267;52.234;7.444;2023-06-19T02:19:53;7.65;;;5.68;;
31660;SDS011;18267;52.234;7.444;2023-06-19T02:22:18;12.70;;;6.32;;
31660;SDS011;18267;52.234;7.444;2023-06-19T02:24:44;7.10;;;5.65;;
31660;SDS011;18267;52.234;7.444;2023-06-19T02:27:10;6.65;;;5.60;;
31660;SDS011;18267;52.234;7.444;2023-06-19T02:29:35;7.10;;;5.57;;
31660;SDS011;18267;52.234;7.444;2023-06-19T02:32:02;6.97;;;6.28;;
31660;SDS011;18267;52.234;7.444;2023-06-19T02:34:28;6.45;;;5.68;;
31660;SDS011;18267;52.234;7.444;2023-06-19T02:36:53;6.40;;;5.80;;
31660;SDS011;18267;52.234;7.444;2023-06-19T02:39:19;6.28;;;5.45;;
31660;SDS011;18267;52.234;7.444;2023-06-19T02:41:46;8.02;;;6.25;;
31660;SDS011;18267;52.234;7.444;2023-06-19T02:44:12;6.43;;;5.80;;
31660;SDS011;18267;52.234;7.444;2023-06-19T02:46:38;7.82;;;5.95;;
31660;SDS011;18267;52.234;7.444;2023-06-19T02:49:04;7.15;;;5.32;;
31660;SDS011;18267;52.234;7.444;2023-06-19T02:51:30;12.25;;;6.15;;
31660;SDS011;18267;52.234;7.444;2023-06-19T02:53:55;7.32;;;5.63;;
31660;SDS011;18267;52.234;7.444;2023-06-19T02:56:21;7.30;;;6.38;;
31660;SDS011;18267;52.234;7.444;2023-06-19T02:58:47;6.80;;;5.93;;
31660;SDS011;18267;52.234;7.444;2023-06-19T03:01:12;6.82;;;5.50;;
31660;SDS011;18267;52.234;7.444;2023-06-19T03:03:38;6.40;;;5.80;;
31660;SDS011;18267;52.234;7.444;2023-06-19T03:06:06;8.27;;;6.18;;
31660;SDS011;18267;52.234;7.444;2023-06-19T03:08:36;10.23;;;6.03;;
31660;SDS011;18267;52.234;7.444;2023-06-19T03:11:02;7.72;;;6.05;;
31660;SDS011;18267;52.234;7.444;2023-06-19T03:13:47;9.27;;;6.25;;
31660;SDS011;18267;52.234;7.444;2023-06-19T03:16:15;9.80;;;6.10;;
31660;SDS011;18267;52.234;7.444;2023-06-19T03:18:41;7.75;;;6.15;;
31660;SDS011;18267;52.234;7.444;2023-06-19T03:21:07;9.27;;;6.35;;
31660;SDS011;18267;52.234;7.444;2023-06-19T03:23:33;8.70;;;6.20;;
31660;SDS011;18267;52.234;7.444;2023-06-19T03:25:58;6.97;;;6.00;;
31660;SDS011;18267;52.234;7.444;2023-06-19T03:28:24;7.80;;;5.80;;
31660;SDS011;18267;52.234;7.444;2023-06-19T03:30:50;9.52;;;6.45;;
31660;SDS011;18267;52.234;7.444;2023-06-19T03:33:16;6.90;;;5.72;;
31660;SDS011;18267;52.234;7.444;2023-06-19T03:35:41;8.55;;;5.80;;
31660;SDS011;18267;52.234;7.444;2023-06-19T03:38:08;25.60;;;6.82;;
31660;SDS011;18267;52.234;7.444;2023-06-19T03:40:34;6.70;;;5.93;;
31660;SDS011;18267;52.234;7.444;2023-06-19T03:43:00;9.95;;;5.88;;
31660;SDS011;18267;52.234;7.444;2023-06-19T03:45:26;6.97;;;6.35;;
31660;SDS011;18267;52.234;7.444;2023-06-19T03:47:53;7.35;;;6.40;;
31660;SDS011;18267;52.234;7.444;2023-06-19T03:50:19;10.75;;;6.60;;
31660;SDS011;18267;52.234;7.444;2023-06-19T03:52:45;8.77;;;7.18;;
31660;SDS011;18267;52.234;7.444;2023-06-19T03:55:14;6.80;;;5.80;;
31660;SDS011;18267;52.234;7.444;2023-06-19T03:57:40;7.40;;;6.32;;
31660;SDS011;18267;52.234;7.444;2023-06-19T04:00:06;7.43;;;5.57;;
31660;SDS011;18267;52.234;7.444;2023-06-19T04:02:36;8.40;;;6.03;;
31660;SDS011;18267;52.234;7.444;2023-06-19T04:05:04;10.23;;;6.22;;
31660;SDS011;18267;52.234;7.444;2023-06-19T04:07:31;6.22;;;5.63;;
31660;SDS011;18267;52.234;7.444;2023-06-19T04:09:57;9.07;;;6.47;;
31660;SDS011;18267;52.234;7.444;2023-06-19T04:12:23;7.80;;;5.78;;
31660;SDS011;18267;52.234;7.444;2023-06-19T04:14:50;7.75;;;6.13;;
31660;SDS011;18267;52.234;7.444;2023-06-19T04:17:20;7.80;;;6.28;;
31660;SDS011;18267;52.234;7.444;2023-06-19T04:19:47;7.93;;;5.88;;
31660;SDS011;18267;52.234;7.444;2023-06-19T04:22:13;13.93;;;5.72;;
31660;SDS011;18267;52.234;7.444;2023-06-19T04:24:40;8.70;;;5.38;;
31660;SDS011;18267;52.234;7.444;2023-06-19T04:27:07;7.43;;;5.22;;
31660;SDS011;18267;52.234;7.444;2023-06-19T04:29:41;7.22;;;4.68;;
31660;SDS011;18267;52.234;7.444;2023-06-19T04:32:07;6.88;;;5.22;;
31660;SDS011;18267;52.234;7.444;2023-06-19T04:34:37;6.53;;;4.93;;
31660;SDS011;18267;52.234;7.444;2023-06-19T04:37:03;7.95;;;4.45;;
31660;SDS011;18267;52.234;7.444;2023-06-19T04:39:30;4.72;;;4.15;;
31660;SDS011;18267;52.234;7.444;2023-06-19T04:41:55;4.15;;;3.78;;
31660;SDS011;18267;52.234;7.444;2023-06-19T04:44:21;6.32;;;3.58;;
31660;SDS011;18267;52.234;7.444;2023-06-19T04:46:47;3.95;;;3.50;;
31660;SDS011;18267;52.234;7.444;2023-06-19T04:49:13;4.90;;;3.00;;
31660;SDS011;18267;52.234;7.444;2023-06-19T04:51:45;3.53;;;3.20;;
31660;SDS011;18267;52.234;7.444;2023-06-19T04:54:13;8.20;;;3.30;;
31660;SDS011;18267;52.234;7.444;2023-06-19T04:56:39;3.50;;;2.50;;
31660;SDS011;18267;52.234;7.444;2023-06-19T04:59:06;3.78;;;3.45;;
31660;SDS011;18267;52.234;7.444;2023-06-19T05:01:37;8.65;;;3.15;;
31660;SDS011;18267;52.234;7.444;2023-06-19T05:04:05;3.30;;;2.53;;
31660;SDS011;18267;52.234;7.444;2023-06-19T05:06:31;5.65;;;2.83;;
31660;SDS011;18267;52.234;7.444;2023-06-19T05:08:57;3.65;;;2.30;;
31660;SDS011;18267;52.234;7.444;2023-06-19T05:11:23;2.88;;;2.67;;
31660;SDS011;18267;52.234;7.444;2023-06-19T05:13:50;3.05;;;2.75;;
31660;SDS011;18267;52.234;7.444;2023-06-19T05:16:18;3.63;;;2.50;;
31660;SDS011;18267;52.234;7.444;2023-06-19T05:18:45;3.17;;;2.50;;
31660;SDS011;18267;52.234;7.444;2023-06-19T05:21:11;3.05;;;2.65;;
31660;SDS011;18267;52.234;7.444;2023-06-19T05:23:37;7.20;;;3.20;;
31660;SDS011;18267;52.234;7.444;2023-06-19T05:26:03;4.07;;;2.92;;
31660;SDS011;18267;52.234;7.444;2023-06-19T05:28:29;3.25;;;2.75;;
31660;SDS011;18267;52.234;7.444;2023-06-19T05:30:55;4.30;;;2.72;;
31660;SDS011;18267;52.234;7.444;2023-06-19T05:33:20;3.63;;;2.60;;
31660;SDS011;18267;52.234;7.444;2023-06-19T05:35:48;3.65;;;2.88;;
31660;SDS011;18267;52.234;7.444;2023-06-19T05:38:20;3.60;;;2.60;;
31660;SDS011;18267;52.234;7.444;2023-06-19T05:40:46;2.92;;;2.42;;
31660;SDS011;18267;52.234;7.444;2023-06-19T05:43:12;4.40;;;2.35;;
31660;SDS011;18267;52.234;7.444;2023-06-19T05:45:38;5.35;;;3.00;;
31660;SDS011;18267;52.234;7.444;2023-06-19T05:48:07;7.47;;;3.03;;
31660;SDS011;18267;52.234;7.444;2023-06-19T05:50:32;3.55;;;2.80;;
31660;SDS011;18267;52.234;7.444;2023-06-19T05:52:58;2.75;;;2.25;;
31660;SDS011;18267;52.234;7.444;2023-06-19T05:55:24;4.53;;;2.38;;
31660;SDS011;18267;52.234;7.444;2023-06-19T05:57:50;4.35;;;2.35;;
31660;SDS011;18267;52.234;7.444;2023-06-19T06:00:15;2.20;;;2.00;;
31660;SDS011;18267;52.234;7.444;2023-06-19T06:02:42;2.90;;;2.17;;
31660;SDS011;18267;52.234;7.444;2023-06-19T06:05:07;2.95;;;2.15;;
31660;SDS011;18267;52.234;7.444;2023-06-19T06:07:34;2.15;;;1.95;;
31660;SDS011;18267;52.234;7.444;2023-06-19T06:09:59;2.60;;;2.08;;
31660;SDS011;18267;52.234;7.444;2023-06-19T06:12:25;5.30;;;2.25;;
31660;SDS011;18267;52.234;7.444;2023-06-19T06:14:51;2.40;;;2.10;;
31660;SDS011;18267;52.234;7.444;2023-06-19T06:17:16;2.67;;;2.40;;
31660;SDS011;18267;52.234;7.444;2023-06-19T06:19:42;7.22;;;2.75;;
31660;SDS011;18267;52.234;7.444;2023-06-19T06:22:07;2.80;;;2.55;;
31660;SDS011;18267;52.234;7.444;2023-06-19T06:24:33;3.30;;;2.72;;
31660;SDS011;18267;52.234;7.444;2023-06-19T06:26:58;9.05;;;2.63;;
31660;SDS011;18267;52.234;7.444;2023-06-19T06:29:24;7.93;;;2.95;;
31660;SDS011;18267;52.234;7.444;2023-06-19T06:31:50;4.80;;;2.00;;
31660;SDS011;18267;52.234;7.444;2023-06-19T06:34:17;3.20;;;2.92;;
31660;SDS011;18267;52.234;7.444;2023-06-19T06:36:44;5.53;;;2.80;;
31660;SDS011;18267;52.234;7.444;2023-06-19T06:39:10;3.03;;;2.55;;
31660;SDS011;18267;52.234;7.444;2023-06-19T06:41:36;2.88;;;2.67;;
31660;SDS011;18267;52.234;7.444;2023-06-19T06:44:01;5.43;;;2.85;;
31660;SDS011;18267;52.234;7.444;2023-06-19T06:46:27;3.13;;;2.40;;
31660;SDS011;18267;52.234;7.444;2023-06-19T06:48:53;2.20;;;1.98;;
31660;SDS011;18267;52.234;7.444;2023-06-19T06:51:18;3.05;;;2.75;;
31660;SDS011;18267;52.234;7.444;2023-06-19T06:53:44;2.78;;;2.20;;
31660;SDS011;18267;52.234;7.444;2023-06-19T06:56:10;2.70;;;2.30;;
31660;SDS011;18267;52.234;7.444;2023-06-19T06:58:35;4.00;;;3.10;;
31660;SDS011;18267;52.234;7.444;2023-06-19T07:01:01;3.58;;;2.70;;
31660;SDS011;18267;52.234;7.444;2023-06-19T07:03:27;5.35;;;2.75;;
31660;SDS011;18267;52.234;7.444;2023-06-19T07:05:57;3.50;;;2.47;;
31660;SDS011;18267;52.234;7.444;2023-06-19T07:08:38;2.97;;;2.67;;
31660;SDS011;18267;52.234;7.444;2023-06-19T07:11:13;4.05;;;2.63;;
31660;SDS011;18267;52.234;7.444;2023-06-19T07:13:39;4.00;;;2.58;;
31660;SDS011;18267;52.234;7.444;2023-06-19T07:16:06;3.40;;;2.55;;
31660;SDS011;18267;52.234;7.444;2023-06-19T07:18:32;3.67;;;2.80;;
31660;SDS011;18267;52.234;7.444;2023-06-19T07:21:00;2.90;;;2.60;;
31660;SDS011;18267;52.234;7.444;2023-06-19T07:23:26;5.10;;;2.63;;
31660;SDS011;18267;52.234;7.444;2023-06-19T07:26:07;2.83;;;2.47;;
31660;SDS011;18267;52.234;7.444;2023-06-19T07:28:37;2.70;;;2.50;;
31660;SDS011;18267;52.234;7.444;2023-06-19T07:31:03;2.75;;;2.40;;
31660;SDS011;18267;52.234;7.444;2023-06-19T07:33:30;3.97;;;1.98;;
31660;SDS011;18267;52.234;7.444;2023-06-19T07:35:59;2.58;;;2.38;;
31660;SDS011;18267;52.234;7.444;2023-06-19T07:38:36;7.20;;;2.70;;
31660;SDS011;18267;52.234;7.444;2023-06-19T07:41:03;4.43;;;2.25;;
31660;SDS011;18267;52.234;7.444;2023-06-19T07:43:34;2.78;;;2.50;;
31660;SDS011;18267;52.234;7.444;2023-06-19T07:46:00;3.25;;;2.42;;
31660;SDS011;18267;52.234;7.444;2023-06-19T07:48:30;5.28;;;2.83;;
31660;SDS011;18267;52.234;7.444;2023-06-19T07:50:56;6.43;;;2.17;;
31660;SDS011;18267;52.234;7.444;2023-06-19T07:53:22;5.43;;;2.75;;
31660;SDS011;18267;52.234;7.444;2023-06-19T07:55:48;2.67;;;2.40;;
31660;SDS011;18267;52.234;7.444;2023-06-19T07:58:34;2.72;;;2.22;;
31660;SDS011;18267;52.234;7.444;2023-06-19T08:01:01;2.80;;;2.17;;
31660;SDS011;18267;52.234;7.444;2023-06-19T08:03:27;2.40;;;2.13;;
31660;SDS011;18267;52.234;7.444;2023-06-19T08:05:52;4.85;;;2.83;;
31660;SDS011;18267;52.234;7.444;2023-06-19T08:08:18;2.92;;;2.60;;
31660;SDS011;18267;52.234;7.444;2023-06-19T08:10:53;4.70;;;2.42;;
31660;SDS011;18267;52.234;7.444;2023-06-19T08:13:19;2.40;;;2.20;;
31660;SDS011;18267;52.234;7.444;2023-06-19T08:15:45;3.30;;;2.13;;
31660;SDS011;18267;52.234;7.444;2023-06-19T08:18:13;4.47;;;2.83;;
31660;SDS011;18267;52.234;7.444;2023-06-19T08:20:40;3.28;;;2.92;;
31660;SDS011;18267;52.234;7.444;2023-06-19T08:23:09;4.25;;;2.83;;
31660;SDS011;18267;52.234;7.444;2023-06-19T08:25:35;2.30;;;2.10;;
31660;SDS011;18267;52.234;7.444;2023-06-19T08:28:01;3.42;;;2.95;;
31660;SDS011;18267;52.234;7.444;2023-06-19T08:30:30;2.78;;;2.58;;
31660;SDS011;18267;52.234;7.444;2023-06-19T08:32:56;3.05;;;2.60;;
31660;SDS011;18267;52.234;7.444;2023-06-19T08:35:22;5.85;;;2.88;;
31660;SDS011;18267;52.234;7.444;2023-06-19T08:37:48;2.70;;;2.50;;
31660;SDS011;18267;52.234;7.444;2023-06-19T08:40:15;7.15;;;3.33;;
31660;SDS011;18267;52.234;7.444;2023-06-19T08:42:41;2.97;;;2.67;;
31660;SDS011;18267;52.234;7.444;2023-06-19T08:45:08;7.55;;;3.15;;
31660;SDS011;18267;52.234;7.444;2023-06-19T08:47:35;5.03;;;2.70;;
31660;SDS011;18267;52.234;7.444;2023-06-19T08:50:04;5.78;;;3.03;;
31660;SDS011;18267;52.234;7.444;2023-06-19T08:52:30;4.28;;;2.60;;
31660;SDS011;18267;52.234;7.444;2023-06-19T08:54:56;3.25;;;2.60;;
31660;SDS011;18267;52.234;7.444;2023-06-19T08:57:34;5.18;;;2.75;;
31660;SDS011;18267;52.234;7.444;2023-06-19T09:00:00;4.60;;;2.47;;
31660;SDS011;18267;52.234;7.444;2023-06-19T09:02:36;4.15;;;2.75;;
31660;SDS011;18267;52.234;7.444;2023-06-19T09:05:12;3.42;;;2.50;;
31660;SDS011;18267;52.234;7.444;2023-06-19T09:07:41;4.10;;;2.53;;
31660;SDS011;18267;52.234;7.444;2023-06-19T09:10:17;2.15;;;1.92;;
31660;SDS011;18267;52.234;7.444;2023-06-19T09:13:04;2.10;;;1.92;;
31660;SDS011;18267;52.234;7.444;2023-06-19T09:15:30;2.42;;;2.15;;
31660;SDS011;18267;52.234;7.444;2023-06-19T09:20:31;4.00;;;1.98;;
31660;SDS011;18267;52.234;7.444;2023-06-19T09:22:58;2.95;;;2.50;;
31660;SDS011;18267;52.234;7.444;2023-06-19T09:25:25;2.10;;;1.90;;
31660;SDS011;18267;52.234;7.444;2023-06-19T09:27:53;3.13;;;2.30;;
31660;SDS011;18267;52.234;7.444;2023-06-19T09:30:19;2.83;;;2.00;;
31660;SDS011;18267;52.234;7.444;2023-06-19T09:32:45;2.17;;;2.05;;
31660;SDS011;18267;52.234;7.444;2023-06-19T09:35:31;5.22;;;2.10;;
31660;SDS011;18267;52.234;7.444;2023-06-19T09:37:57;2.25;;;1.63;;
31660;SDS011;18267;52.234;7.444;2023-06-19T09:40:23;2.78;;;2.17;;
31660;SDS011;18267;52.234;7.444;2023-06-19T09:42:50;4.50;;;1.98;;
31660;SDS011;18267;52.234;7.444;2023-06-19T09:45:23;3.85;;;2.05;;
31660;SDS011;18267;52.234;7.444;2023-06-19T09:47:51;2.47;;;2.10;;
31660;SDS011;18267;52.234;7.444;2023-06-19T09:50:28;3.42;;;1.60;;
31660;SDS011;18267;52.234;7.444;2023-06-19T09:52:55;1.95;;;1.80;;
31660;SDS011;18267;52.234;7.444;2023-06-19T09:55:22;1.83;;;1.73;;
31660;SDS011;18267;52.234;7.444;2023-06-19T09:57:49;3.53;;;1.50;;
31660;SDS011;18267;52.234;7.444;2023-06-19T10:00:15;2.88;;;1.40;;
31660;SDS011;18267;52.234;7.444;2023-06-19T10:02:46;3.55;;;1.77;;
31660;SDS011;18267;52.234;7.444;2023-06-19T10:05:13;2.05;;;1.85;;
31660;SDS011;18267;52.234;7.444;2023-06-19T10:07:43;2.00;;;1.80;;
31660;SDS011;18267;52.234;7.444;2023-06-19T10:10:11;2.78;;;1.70;;
31660;SDS011;18267;52.234;7.444;2023-06-19T10:12:48;3.00;;;1.63;;
31660;SDS011;18267;52.234;7.444;2023-06-19T10:15:20;1.50;;;1.40;;
31660;SDS011;18267;52.234;7.444;2023-06-19T10:17:49;2.67;;;1.70;;
31660;SDS011;18267;52.234;7.444;2023-06-19T10:20:49;1.45;;;1.35;;
31660;SDS011;18267;52.234;7.444;2023-06-19T10:23:18;1.60;;;1.50;;
31660;SDS011;18267;52.234;7.444;2023-06-19T10:25:54;2.03;;;1.65;;
31660;SDS011;18267;52.234;7.444;2023-06-19T10:28:22;2.53;;;1.55;;
31660;SDS011;18267;52.234;7.444;2023-06-19T10:30:59;4.05;;;1.55;;
31660;SDS011;18267;52.234;7.444;2023-06-19T10:33:32;2.50;;;1.75;;
31660;SDS011;18267;52.234;7.444;2023-06-19T10:35:59;1.73;;;1.30;;
31660;SDS011;18267;52.234;7.444;2023-06-19T10:38:27;1.88;;;1.75;;
31660;SDS011;18267;52.234;7.444;2023-06-19T10:40:53;1.60;;;1.50;;
31660;SDS011;18267;52.234;7.444;2023-06-19T10:43:22;5.82;;;2.10;;
31660;SDS011;18267;52.234;7.444;2023-06-19T10:45:50;2.63;;;1.70;;
31660;SDS011;18267;52.234;7.444;2023-06-19T10:48:20;1.58;;;1.35;;
31660;SDS011;18267;52.234;7.444;2023-06-19T10:50:55;1.90;;;1.38;;
31660;SDS011;18267;52.234;7.444;2023-06-19T10:53:25;1.75;;;1.50;;
31660;SDS011;18267;52.234;7.444;2023-06-19T10:56:02;2.63;;;2.08;;
31660;SDS011;18267;52.234;7.444;2023-06-19T10:58:31;3.08;;;2.08;;
31660;SDS011;18267;52.234;7.444;2023-06-19T11:00:57;2.78;;;2.28;;
31660;SDS011;18267;52.234;7.444;2023-06-19T11:03:23;6.40;;;1.98;;
31660;SDS011;18267;52.234;7.444;2023-06-19T11:05:49;1.88;;;1.70;;
31660;SDS011;18267;52.234;7.444;2023-06-19T11:08:18;3.00;;;2.40;;
31660;SDS011;18267;52.234;7.444;2023-06-19T11:10:45;2.42;;;1.77;;
31660;SDS011;18267;52.234;7.444;2023-06-19T11:13:14;5.30;;;2.53;;
31660;SDS011;18267;52.234;7.444;2023-06-19T11:15:41;6.45;;;2.20;;
31660;SDS011;18267;52.234;7.444;2023-06-19T11:18:07;2.50;;;2.30;;
31660;SDS011;18267;52.234;7.444;2023-06-19T11:20:47;7.38;;;2.67;;
31660;SDS011;18267;52.234;7.444;2023-06-19T11:23:16;3.67;;;2.17;;
31660;SDS011;18267;52.234;7.444;2023-06-19T11:25:52;2.47;;;2.03;;
31660;SDS011;18267;52.234;7.444;2023-06-19T11:30:47;2.38;;;1.90;;
31660;SDS011;18267;52.234;7.444;2023-06-19T11:33:19;8.05;;;2.47;;
31660;SDS011;18267;52.234;7.444;2023-06-19T11:35:52;5.32;;;2.40;;
31660;SDS011;18267;52.234;7.444;2023-06-19T11:38:20;4.70;;;2.10;;
31660;SDS011;18267;52.234;7.444;2023-06-19T11:40:51;4.53;;;2.47;;
31660;SDS011;18267;52.234;7.444;2023-06-19T11:46:11;3.38;;;2.95;;
31660;SDS011;18267;52.234;7.444;2023-06-19T11:48:37;4.82;;;3.15;;
31660;SDS011;18267;52.234;7.444;2023-06-19T11:51:03;4.82;;;2.72;;
31660;SDS011;18267;52.234;7.444;2023-06-19T11:53:28;4.47;;;3.20;;
31660;SDS011;18267;52.234;7.444;2023-06-19T11:55:55;3.80;;;3.10;;
31660;SDS011;18267;52.234;7.444;2023-06-19T11:58:21;3.90;;;3.03;;
31660;SDS011;18267;52.234;7.444;2023-06-19T12:00:50;6.75;;;3.35;;
31660;SDS011;18267;52.234;7.444;2023-06-19T12:03:15;3.50;;;3.20;;
31660;SDS011;18267;52.234;7.444;2023-06-19T12:05:41;5.28;;;3.20;;
31660;SDS011;18267;52.234;7.444;2023-06-19T12:08:07;5.75;;;4.05;;
31660;SDS011;18267;52.234;7.444;2023-06-19T12:10:33;4.85;;;4.43;;
31660;SDS011;18267;52.234;7.444;2023-06-19T12:12:59;4.18;;;3.63;;
31660;SDS011;18267;52.234;7.444;2023-06-19T12:15:25;6.38;;;3.95;;
31660;SDS011;18267;52.234;7.444;2023-06-19T12:17:51;6.18;;;4.10;;
31660;SDS011;18267;52.234;7.444;2023-06-19T12:20:17;7.22;;;3.67;;
31660;SDS011;18267;52.234;7.444;2023-06-19T12:22:43;7.40;;;4.05;;
31660;SDS011;18267;52.234;7.444;2023-06-19T12:25:08;5.20;;;3.97;;
31660;SDS011;18267;52.234;7.444;2023-06-19T12:27:36;4.65;;;3.63;;
31660;SDS011;18267;52.234;7.444;2023-06-19T12:30:03;4.65;;;3.85;;
31660;SDS011;18267;52.234;7.444;2023-06-19T12:32:29;6.00;;;4.32;;
31660;SDS011;18267;52.234;7.444;2023-06-19T12:34:55;4.85;;;4.20;;
31660;SDS011;18267;52.234;7.444;2023-06-19T12:37:27;6.40;;;4.18;;
31660;SDS011;18267;52.234;7.444;2023-06-19T12:39:53;8.40;;;4.50;;
31660;SDS011;18267;52.234;7.444;2023-06-19T12:42:18;5.22;;;3.60;;
31660;SDS011;18267;52.234;7.444;2023-06-19T12:44:45;8.20;;;4.95;;
31660;SDS011;18267;52.234;7.444;2023-06-19T12:47:11;4.80;;;4.25;;
31660;SDS011;18267;52.234;7.444;2023-06-19T12:49:38;5.07;;;4.57;;
31660;SDS011;18267;52.234;7.444;2023-06-19T12:52:05;9.85;;;4.30;;
31660;SDS011;18267;52.234;7.444;2023-06-19T12:54:32;5.82;;;3.92;;
31660;SDS011;18267;52.234;7.444;2023-06-19T12:57:08;4.57;;;3.47;;
31660;SDS011;18267;52.234;7.444;2023-06-19T12:59:34;4.13;;;3.72;;
31660;SDS011;18267;52.234;7.444;2023-06-19T13:02:00;6.85;;;3.70;;
31660;SDS011;18267;52.234;7.444;2023-06-19T13:04:27;7.15;;;3.97;;
31660;SDS011;18267;52.234;7.444;2023-06-19T13:06:52;7.65;;;4.10;;
31660;SDS011;18267;52.234;7.444;2023-06-19T13:09:18;6.72;;;4.38;;
31660;SDS011;18267;52.234;7.444;2023-06-19T13:11:44;4.80;;;4.38;;
31660;SDS011;18267;52.234;7.444;2023-06-19T13:14:10;5.03;;;4.32;;
31660;SDS011;18267;52.234;7.444;2023-06-19T13:16:36;4.32;;;3.92;;
31660;SDS011;18267;52.234;7.444;2023-06-19T13:19:06;4.63;;;4.20;;
31660;SDS011;18267;52.234;7.444;2023-06-19T13:21:31;5.72;;;4.40;;
31660;SDS011;18267;52.234;7.444;2023-06-19T13:23:58;5.20;;;4.80;;
31660;SDS011;18267;52.234;7.444;2023-06-19T13:26:23;6.85;;;4.80;;
31660;SDS011;18267;52.234;7.444;2023-06-19T13:28:49;10.73;;;5.40;;
31660;SDS011;18267;52.234;7.444;2023-06-19T13:31:24;5.75;;;4.38;;
31660;SDS011;18267;52.234;7.444;2023-06-19T13:33:50;10.13;;;4.50;;
31660;SDS011;18267;52.234;7.444;2023-06-19T13:36:16;7.95;;;4.95;;
31660;SDS011;18267;52.234;7.444;2023-06-19T13:38:43;8.20;;;4.35;;
31660;SDS011;18267;52.234;7.444;2023-06-19T13:41:09;5.80;;;4.60;;
31660;SDS011;18267;52.234;7.444;2023-06-19T13:43:34;5.00;;;4.45;;
31660;SDS011;18267;52.234;7.444;2023-06-19T13:46:00;7.18;;;3.85;;
31660;SDS011;18267;52.234;7.444;2023-06-19T13:48:28;4.75;;;4.30;;
31660;SDS011;18267;52.234;7.444;2023-06-19T13:50:53;5.43;;;4.10;;
31660;SDS011;18267;52.234;7.444;2023-06-19T13:53:19;6.22;;;4.70;;
31660;SDS011;18267;52.234;7.444;2023-06-19T13:55:49;8.75;;;4.38;;
31660;SDS011;18267;52.234;7.444;2023-06-19T13:58:15;4.50;;;4.18;;
31660;SDS011;18267;52.234;7.444;2023-06-19T14:00:40;8.20;;;5.10;;
31660;SDS011;18267;52.234;7.444;2023-06-19T14:03:06;6.53;;;4.53;;
31660;SDS011;18267;52.234;7.444;2023-06-19T14:05:32;4.35;;;4.03;;
31660;SDS011;18267;52.234;7.444;2023-06-19T14:07:58;5.95;;;4.13;;
31660;SDS011;18267;52.234;7.444;2023-06-19T14:10:24;5.75;;;4.43;;
31660;SDS011;18267;52.234;7.444;2023-06-19T14:12:51;7.00;;;5.18;;
31660;SDS011;18267;52.234;7.444;2023-06-19T14:15:17;7.90;;;4.95;;
31660;SDS011;18267;52.234;7.444;2023-06-19T14:17:43;4.65;;;4.25;;
31660;SDS011;18267;52.234;7.444;2023-06-19T14:20:10;5.15;;;4.65;;
31660;SDS011;18267;52.234;7.444;2023-06-19T14:22:36;5.82;;;4.25;;
31660;SDS011;18267;52.234;7.444;2023-06-19T14:25:02;4.90;;;4.45;;
31660;SDS011;18267;52.234;7.444;2023-06-19T14:27:28;6.53;;;4.65;;
31660;SDS011;18267;52.234;7.444;2023-06-19T14:29:54;5.90;;;3.97;;
31660;SDS011;18267;52.234;7.444;2023-06-19T14:32:21;5.05;;;4.30;;
31660;SDS011;18267;52.234;7.444;2023-06-19T14:34:49;5.28;;;4.25;;
31660;SDS011;18267;52.234;7.444;2023-06-19T14:37:15;6.28;;;4.35;;
31660;SDS011;18267;52.234;7.444;2023-06-19T14:39:40;7.13;;;4.75;;
31660;SDS011;18267;52.234;7.444;2023-06-19T14:42:06;9.60;;;4.82;;
31660;SDS011;18267;52.234;7.444;2023-06-19T14:44:32;4.85;;;4.35;;
31660;SDS011;18267;52.234;7.444;2023-06-19T14:46:58;8.10;;;4.50;;
31660;SDS011;18267;52.234;7.444;2023-06-19T14:49:27;9.00;;;4.90;;
31660;SDS011;18267;52.234;7.444;2023-06-19T14:51:56;4.78;;;4.22;;
31660;SDS011;18267;52.234;7.444;2023-06-19T14:54:32;5.05;;;4.53;;
31660;SDS011;18267;52.234;7.444;2023-06-19T14:56:58;7.82;;;4.05;;
31660;SDS011;18267;52.234;7.444;2023-06-19T14:59:24;6.00;;;4.50;;
31660;SDS011;18267;52.234;7.444;2023-06-19T15:01:51;6.90;;;4.18;;